Latest Weather Observations for Point Cook

IDV60801

Issued at 3:52 pm EST Monday 20 May 2024 (issued every 10 minutes, with the page automatically refreshed every 10 minutes)

About weather observations | Map of weather stations | Latest weather observations for VIC | Other Formats
Station Details ID: 087185 Name: POINT COOK RAAF Lat: -37.93 Lon: 144.76 Height: 3.13 m
Data from the previous 72 hours. | See also: Recent months for locations in Victoria
Date/Time
EST
Temp
°C
App
Temp
°C
Dew
Point
°C
Rel
Hum
%
Delta-T
°C
Wind Press
QNH
hPa
Press
MSL
hPa
Rain since
9am
mm
Dir  Spd
km/h
Gust
km/h
Spd
kts
Gust
kts
20/03:45pm 12.7 10.3 10.2 85 1.3 SW 13 24 7 13 1027.9 1027.9 0.4
20/03:30pm 11.9 9.2 10.3 90 0.8 SW 15 24 8 13 1027.9 1027.9 0.4
20/03:28pm 11.8 8.6 10.0 89 0.9 WSW 17 24 9 13 1027.9 1027.9 0.4
20/03:00pm 12.8 10.8 10.0 83 1.4 SSW 11 17 6 9 1027.7 1027.7 0.4
20/02:30pm 12.0 8.6 10.4 90 0.8 SSE 19 24 10 13 1027.5 1027.5 0.4
20/02:11pm 12.0 8.6 10.4 90 0.8 SSW 19 30 10 16 1027.7 1027.7 0.4
20/02:00pm 13.4 12.0 9.5 77 2.0 S 7 13 4 7 1027.5 1027.5 0.2
20/01:30pm 13.1 9.3 9.9 81 1.6 S 20 28 11 15 1027.7 1027.7 0.2
20/01:00pm 13.7 10.5 9.9 78 1.9 S 17 24 9 13 1027.8 1027.8 0.2
20/12:30pm 13.2 10.4 10.0 81 1.6 SSW 15 20 8 11 1027.9 1027.9 0.2
20/12:00pm 12.9 10.2 10.4 85 1.3 SSW 15 22 8 12 1028.1 1028.1 0.2
20/11:30am 13.5 11.9 11.6 88 1.0 SW 11 17 6 9 1028.2 1028.2 0.2
20/11:00am 12.1 9.4 10.5 90 0.8 WSW 15 20 8 11 1028.3 1028.3 0.2
20/10:30am 12.2 9.3 10.9 92 0.7 WSW 17 22 9 12 1028.1 1028.1 0.2
20/10:04am 11.8 9.6 10.7 93 0.6 WSW 13 19 7 10 1027.9 1027.9 0.2
20/10:00am 12.1 10.4 11.2 94 0.5 WSW 11 19 6 10 1027.9 1027.9 0.2
20/09:40am 11.5 8.9 10.6 94 0.5 WSW 15 22 8 12 1027.7 1027.7 0.2
20/09:30am 11.6 9.0 10.7 94 0.5 WSW 15 20 8 11 1027.6 1027.6 0.0
20/09:00am 10.7 7.5 9.9 95 0.4 W 17 20 9 11 1027.3 1027.3 2.4
20/08:57am 10.6 7.4 9.8 95 0.4 W 17 22 9 12 1027.3 1027.3 2.4
20/08:40am 10.3 8.1 9.5 95 0.4 W 11 17 6 9 1027.2 1027.2 2.4
20/08:30am 10.2 8.4 9.4 95 0.4 W 9 11 5 6 1027.1 1027.1 2.4
20/08:12am 10.0 8.5 9.2 95 0.4 W 7 13 4 7 1027.0 1027.0 2.4
20/08:00am 9.9 6.9 9.1 95 0.4 WSW 15 20 8 11 1026.7 1026.7 2.4
20/07:40am 9.6 5.7 8.8 95 0.4 W 19 24 10 13 1026.4 1026.4 2.2
20/07:30am 9.3 5.4 8.5 95 0.4 W 19 24 10 13 1026.4 1026.4 2.2
20/07:00am 9.0 5.7 8.2 95 0.4 W 15 19 8 10 1026.1 1026.1 2.0
20/06:30am 8.6 6.0 7.8 95 0.4 W 11 15 6 8 1025.7 1025.7 2.0
20/06:00am 9.0 6.1 8.1 94 0.4 W 13 17 7 9 1025.6 1025.6 2.0
20/05:41am 9.4 6.6 8.5 94 0.4 W 13 19 7 10 1025.4 1025.4 2.0
20/05:30am 9.5 6.7 8.6 94 0.4 W 13 20 7 11 1025.3 1025.3 2.0
20/05:00am 10.0 7.0 9.1 94 0.4 W 15 20 8 11 1025.0 1025.0 2.0
20/04:45am 10.1 6.7 9.2 94 0.4 W 17 20 9 11 1024.8 1024.8 2.0
20/04:39am 10.1 6.7 9.2 94 0.4 W 17 20 9 11 1024.8 1024.8 2.0
20/04:31am 10.1 6.7 9.2 94 0.4 W 17 24 9 13 1024.6 1024.6 2.0
20/04:30am 10.1 6.7 9.2 94 0.4 W 17 24 9 13 1024.6 1024.6 2.0
20/04:09am 10.2 7.2 9.3 94 0.4 WSW 15 20 8 11 1024.4 1024.4 1.8
20/04:00am 10.2 7.2 9.3 94 0.4 WSW 15 19 8 10 1024.4 1024.4 1.8
20/03:56am 10.2 7.2 9.3 94 0.4 WSW 15 22 8 12 1024.4 1024.4 1.8
20/03:31am 10.1 6.7 9.0 93 0.5 W 17 26 9 14 1024.3 1024.3 1.6
20/03:30am 10.1 6.7 9.0 93 0.5 W 17 26 9 14 1024.3 1024.3 1.6
20/03:19am 10.3 6.8 8.7 90 0.8 W 17 22 9 12 1024.3 1024.3 1.2
20/03:00am 10.1 7.0 8.7 91 0.7 W 15 19 8 10 1024.3 1024.3 1.0
20/02:47am 10.1 7.0 8.7 91 0.7 W 15 19 8 10 1024.2 1024.2 1.0
20/02:30am 10.3 7.9 8.7 90 0.8 W 11 17 6 9 1024.3 1024.3 1.0
20/02:26am 10.4 8.0 8.7 89 0.8 W 11 17 6 9 1024.4 1024.4 1.0
20/02:00am 10.5 7.7 8.4 87 1.0 W 13 20 7 11 1024.2 1024.2 1.0
20/01:30am 10.9 8.0 8.0 82 1.4 W 13 17 7 9 1024.1 1024.1 1.0
20/01:00am 10.8 7.9 8.0 83 1.4 W 13 17 7 9 1024.0 1024.0 1.0
20/12:30am 11.2 9.1 8.2 82 1.5 W 9 11 5 6 1024.3 1024.3 1.0
20/12:00am 11.3 9.2 8.2 81 1.5 W 9 15 5 8 1024.2 1024.2 1.0
 
Date/Time
EST
Temp
°C
App
Temp
°C
Dew
Point
°C
Rel
Hum
%
Delta-T
°C
Wind Press
QNH
hPa
Press
MSL
hPa
Rain since
9am
mm
Dir  Spd
km/h
Gust
km/h
Spd
kts
Gust
kts
19/11:30pm 11.4 8.6 8.4 82 1.5 WSW 13 19 7 10 1024.2 1024.2 1.0
19/11:00pm 11.0 8.9 8.2 83 1.4 W 9 11 5 6 1024.4 1024.4 1.0
19/10:30pm 11.5 9.0 8.2 80 1.6 W 11 15 6 8 1024.2 1024.2 1.0
19/10:00pm 11.5 8.3 8.5 82 1.5 W 15 19 8 10 1024.3 1024.3 1.0
19/09:30pm 11.8 9.1 8.8 82 1.5 W 13 17 7 9 1024.4 1024.4 1.0
19/09:00pm 11.8 9.8 8.6 81 1.6 W 9 13 5 7 1024.5 1024.5 1.0
19/08:30pm 11.8 10.4 9.4 85 1.2 WNW 7 9 4 5 1024.3 1024.3 1.0
19/08:00pm 12.4 10.7 10.0 85 1.2 W 9 15 5 8 1024.2 1024.2 1.0
19/07:30pm 12.5 10.4 9.9 84 1.3 W 11 19 6 10 1024.0 1024.0 1.0
19/07:00pm 13.2 9.6 10.0 81 1.6 SW 19 22 10 12 1023.8 1023.8 1.0
19/06:30pm 12.9 9.7 9.9 82 1.5 SW 17 22 9 12 1023.4 1023.4 1.0
19/06:00pm 13.0 9.9 10.4 84 1.3 SW 17 22 9 12 1023.1 1023.1 1.0
19/05:30pm 13.6 11.9 10.0 79 1.9 SW 9 17 5 9 1022.7 1022.7 1.0
19/05:00pm 14.1 12.6 10.7 80 1.8 SW 9 13 5 7 1022.4 1022.4 1.0
19/04:30pm 14.6 13.0 11.6 82 1.6 SW 11 17 6 9 1022.3 1022.3 1.0
19/04:00pm 14.3 12.2 11.3 82 1.6 SW 13 17 7 9 1022.1 1022.1 1.0
19/03:30pm 14.2 11.8 11.4 83 1.5 SW 15 20 8 11 1022.1 1022.1 1.0
19/03:00pm 14.8 11.5 11.0 78 2.0 WSW 19 28 10 15 1021.9 1021.9 1.0
19/02:30pm 14.8 12.5 11.8 82 1.6 W 15 22 8 12 1021.9 1021.9 1.0
19/02:02pm 14.4 11.4 11.9 85 1.3 W 19 28 10 15 1022.0 1022.0 1.0
19/02:00pm 14.3 11.8 12.2 87 1.1 W 17 28 9 15 1022.1 1022.1 1.0
19/01:32pm 13.9 10.4 10.9 82 1.6 WSW 20 26 11 14 1022.3 1022.3 0.0
19/01:30pm 14.2 10.8 10.6 79 1.9 WSW 19 26 10 14 1022.3 1022.3 0.0
19/01:00pm 14.8 10.0 10.4 75 2.3 W 26 39 14 21 1022.4 1022.4 0.0
19/12:30pm 15.2 10.3 10.0 71 2.7 W 26 37 14 20 1022.8 1022.8 0.0
19/12:00pm 14.8 9.8 9.6 71 2.7 W 26 35 14 19 1023.2 1023.2 0.0
19/11:30am 14.4 9.8 9.6 73 2.5 W 24 33 13 18 1023.7 1023.7 0.0
19/11:00am 14.2 9.5 9.4 73 2.4 W 24 37 13 20 1023.9 1023.9 0.0
19/10:30am 14.7 10.5 9.7 72 2.6 W 22 35 12 19 1024.0 1024.0 0.0
19/10:00am 13.3 9.5 9.0 75 2.2 W 19 28 10 15 1024.2 1024.2 0.0
19/09:30am 12.5 8.3 8.4 76 2.0 WNW 20 35 11 19 1024.4 1024.4 0.0
19/09:00am 11.4 7.6 7.7 78 1.8 WNW 17 20 9 11 1024.5 1024.5 0.0
19/08:30am 10.8 7.3 7.3 79 1.7 NW 15 20 8 11 1024.6 1024.6 0.0
19/08:00am 9.4 6.1 6.3 81 1.4 NW 13 15 7 8 1024.7 1024.7 0.0
19/07:30am 9.5 6.5 6.2 80 1.5 NW 11 17 6 9 1024.9 1024.9 0.0
19/07:00am 9.4 6.0 5.9 79 1.6 NW 13 19 7 10 1024.8 1024.8 0.0
19/06:30am 9.0 5.9 5.7 80 1.5 NNW 11 15 6 8 1024.9 1024.9 0.0
19/06:00am 8.9 6.1 5.3 78 1.6 NNW 9 11 5 6 1025.2 1025.2 0.0
19/05:30am 8.6 5.8 5.2 79 1.5 NW 9 11 5 6 1025.4 1025.4 0.0
19/05:00am 8.3 5.4 4.9 79 1.5 NW 9 15 5 8 1025.5 1025.5 0.0
19/04:30am 8.7 5.1 4.9 77 1.7 NW 13 17 7 9 1025.3 1025.3 0.0
19/04:00am 8.5 4.8 4.3 75 1.8 NW 13 19 7 10 1025.6 1025.6 0.0
19/03:30am 8.3 4.1 3.9 74 1.9 NW 15 17 8 9 1025.9 1025.9 0.0
19/03:00am 8.0 3.4 3.8 75 1.8 NW 17 20 9 11 1026.1 1026.1 0.0
19/02:30am 7.8 4.0 3.8 76 1.7 NW 13 17 7 9 1026.4 1026.4 0.0
19/02:00am 7.3 3.1 3.9 79 1.4 NW 15 17 8 9 1026.7 1026.7 0.0
19/01:30am 7.2 3.0 3.8 79 1.5 NW 15 22 8 12 1027.3 1027.3 0.0
19/01:00am 5.2 1.6 2.7 84 1.0 NW 11 15 6 8 1027.7 1027.7 0.0
19/12:30am 5.2 1.2 2.9 85 0.9 NW 13 15 7 8 1028.2 1028.2 0.0
19/12:00am 4.6 0.9 2.5 86 0.8 NW 11 15 6 8 1028.4 1028.4 0.0
 
Date/Time
EST
Temp
°C
App
Temp
°C
Dew
Point
°C
Rel
Hum
%
Delta-T
°C
Wind Press
QNH
hPa
Press
MSL
hPa
Rain since
9am
mm
Dir  Spd
km/h
Gust
km/h
Spd
kts
Gust
kts
18/11:30pm 4.6 0.9 2.1 84 1.0 WNW 11 15 6 8 1028.8 1028.8 0.0
18/11:00pm 5.2 1.1 2.4 82 1.1 WNW 13 15 7 8 1029.2 1029.2 0.0
18/10:30pm 5.3 1.2 2.3 81 1.2 NW 13 15 7 8 1029.2 1029.2 0.0
18/10:00pm 5.4 1.4 2.8 83 1.1 WNW 13 15 7 8 1029.7 1029.7 0.0
18/09:30pm 5.3 1.7 2.7 83 1.1 WNW 11 13 6 7 1029.7 1029.7 0.0
18/09:00pm 5.5 1.9 3.0 84 1.0 WNW 11 13 6 7 1029.9 1029.9 0.0
18/08:30pm 5.7 2.9 3.2 84 1.0 W 7 11 4 6 1029.9 1029.9 0.0
18/08:00pm 5.6 3.2 2.4 80 1.3 WSW 4 7 2 4 1030.0 1030.0 0.0
18/07:30pm 7.0 5.2 3.3 77 1.6 WSW 2 6 1 3 1030.3 1030.3 0.0
18/07:00pm 8.3 5.3 2.3 66 2.5 SSW 7 11 4 6 1030.2 1030.2 0.0
18/06:30pm 8.9 5.6 2.5 64 2.7 SSW 9 13 5 7 1030.3 1030.3 0.0
18/06:00pm 9.2 5.8 2.1 61 2.9 SSW 9 13 5 7 1030.1 1030.1 0.0
18/05:30pm 10.0 6.4 2.8 61 3.1 SSW 11 13 6 7 1030.4 1030.4 0.0
18/05:00pm 10.9 7.3 3.0 58 3.4 S 11 15 6 8 1030.5 1030.5 0.0
18/04:30pm 11.9 8.4 3.7 57 3.6 S 11 17 6 9 1030.8 1030.8 0.0
18/04:00pm 12.6 9.0 3.0 52 4.2 S 11 15 6 8 1030.9 1030.9 0.0
18/03:30pm 12.8 9.5 2.4 49 4.5 SSE 9 15 5 8 1031.0 1031.0 0.0
18/03:00pm 12.8 10.3 3.5 53 4.1 S 6 9 3 5 1031.0 1031.0 0.0
18/02:30pm 12.9 9.7 3.3 52 4.3 SSW 9 13 5 7 1031.3 1031.3 0.0
18/02:00pm 13.0 9.8 2.8 50 4.5 S 9 17 5 9 1031.4 1031.4 0.0
18/01:30pm 12.9 9.6 2.5 49 4.5 S 9 13 5 7 1031.9 1031.9 0.0
18/01:00pm 13.1 9.1 2.6 49 4.6 SSE 13 19 7 10 1032.4 1032.4 0.0
18/12:30pm 12.7 9.4 2.3 49 4.5 SSE 9 13 5 7 1032.3 1032.3 0.0
18/12:00pm 13.0 9.5 3.7 53 4.1 SE 11 17 6 9 1032.9 1032.9 0.0
18/11:30am 12.7 7.6 2.8 51 4.3 SE 19 24 10 13 1033.5 1033.5 0.0
18/11:00am 12.7 8.0 3.4 53 4.1 SE 17 20 9 11 1033.6 1033.6 0.0
18/10:30am 12.4 7.6 2.6 51 4.3 SE 17 20 9 11 1033.4 1033.4 0.0
18/10:00am 12.3 7.3 3.8 56 3.8 ESE 19 26 10 14 1033.3 1033.3 0.0
18/09:30am 11.8 6.1 2.8 54 3.9 ESE 22 28 12 15 1033.0 1033.0 0.0
18/09:00am 11.7 6.3 2.2 52 4.0 SE 20 26 11 14 1032.7 1032.7 1.8
18/08:30am 11.6 5.4 2.4 53 4.0 SE 24 35 13 19 1032.4 1032.4 1.8
18/08:00am 10.8 4.3 2.9 58 3.4 SSE 26 35 14 19 1032.2 1032.2 1.8
18/07:30am 10.4 4.2 2.0 56 3.5 S 24 35 13 19 1032.3 1032.3 1.8
18/07:00am 10.7 5.0 2.8 58 3.4 S 22 30 12 16 1032.1 1032.1 1.8
18/06:30am 10.6 3.6 1.9 55 3.7 SSE 28 35 15 19 1031.8 1031.8 1.8
18/06:00am 10.6 3.1 1.2 52 3.9 SSE 30 39 16 21 1031.6 1031.6 1.8
18/05:30am 10.9 3.3 2.7 57 3.5 SSE 32 41 17 22 1031.0 1031.0 1.8
18/05:00am 11.1 3.3 2.7 56 3.6 S 33 43 18 23 1031.2 1031.2 1.8
18/04:30am 11.0 3.3 2.3 55 3.7 S 32 41 17 22 1031.1 1031.1 1.8
18/04:00am 10.7 2.9 2.0 55 3.6 S 32 41 17 22 1031.0 1031.0 1.8
18/03:30am 10.9 3.1 3.0 58 3.4 S 33 44 18 24 1031.0 1031.0 1.8
18/03:00am 11.3 3.5 3.1 57 3.5 S 33 44 18 24 1031.1 1031.1 1.8
18/02:30am 11.4 5.1 3.7 59 3.4 SSE 26 33 14 18 1031.0 1031.0 1.8
18/02:00am 11.2 3.7 4.7 64 2.9 S 33 43 18 23 1031.1 1031.1 1.8
18/01:30am 11.4 3.9 4.2 61 3.2 S 33 41 18 22 1030.9 1030.9 1.8
18/01:00am 11.2 2.6 4.9 65 2.8 S 39 52 21 28 1030.9 1030.9 1.8
18/12:42am 11.5 4.5 6.2 70 2.5 S 32 43 17 23 1030.8 1030.8 1.8
18/12:30am 11.3 3.4 4.5 63 3.1 S 35 43 19 23 1030.7 1030.7 1.8
18/12:00am 11.6 4.3 5.3 65 2.9 S 33 48 18 26 1030.8 1030.8 1.8
 
Date/Time
EST
Temp
°C
App
Temp
°C
Dew
Point
°C
Rel
Hum
%
Delta-T
°C
Wind Press
QNH
hPa
Press
MSL
hPa
Rain since
9am
mm
Dir  Spd
km/h
Gust
km/h
Spd
kts
Gust
kts
17/11:30pm 11.2 4.1 5.5 68 2.6 S 32 43 17 23 1030.8 1030.8 1.8
17/11:00pm 11.7 4.1 5.8 67 2.7 S 35 46 19 25 1030.6 1030.6 1.8
17/10:49pm 11.9 3.7 6.6 70 2.5 S 39 50 21 27 1030.6 1030.6 1.8
17/10:30pm 11.9 5.8 6.8 71 2.4 SW 28 44 15 24 1030.5 1030.5 1.8
17/10:00pm 10.6 3.6 8.4 86 1.1 SW 35 46 19 25 1030.5 1030.5 1.8
17/09:30pm 11.6 5.8 7.9 78 1.8 SSW 28 37 15 20 1030.1 1030.1 1.4
17/09:00pm 10.9 4.5 8.5 85 1.2 SSW 32 43 17 23 1030.1 1030.1 1.4
17/08:30pm 10.2 5.2 8.0 86 1.1 WSW 24 35 13 19 1029.9 1029.9 0.8
17/08:00pm 11.0 7.0 8.2 83 1.4 SW 19 26 10 14 1029.7 1029.7 0.6
17/07:30pm 11.9 5.8 6.8 71 2.4 SSW 28 35 15 19 1029.3 1029.3 0.4
17/07:00pm 12.5 7.1 4.7 59 3.5 SSW 22 28 12 15 1029.0 1029.0 0.4
17/06:30pm 12.7 7.0 4.9 59 3.6 SSW 24 30 13 16 1029.0 1029.0 0.4
17/06:00pm 12.7 7.9 5.8 63 3.2 SSW 20 30 11 16 1028.6 1028.6 0.4
17/05:30pm 12.8 7.6 5.5 61 3.4 SSW 22 32 12 17 1028.2 1028.2 0.4
17/05:00pm 13.1 7.6 6.0 62 3.3 SSW 24 32 13 17 1027.9 1027.9 0.4
17/04:30pm 13.7 6.9 7.0 64 3.3 SSW 32 41 17 22 1027.5 1027.5 0.4
17/04:00pm 14.2 8.2 8.6 69 2.8 SSW 30 41 16 22 1027.1 1027.1 0.4

Other formats

Comma delimited format used in spreadsheet applications
http://www.bom.gov.au/fwo/IDV60801/IDV60801.95941.axf

JavaScript Object Notation format (JSON) in row-major order
http://www.bom.gov.au/fwo/IDV60801/IDV60801.95941.json

Data quality

Most of these data are generated automatically and are frequently updated. Quality checks on data are not normally performed. It is possible for incorrect values to appear. Refer to information at About Latest Weather Observations and please check the disclaimer before using these data.